createdAt,value
2017-08-25T00:00:03.671Z,9.60
2017-08-25T00:02:30.422Z,10.13
2017-08-25T00:04:57.163Z,8.97
2017-08-25T00:07:23.871Z,10.17
2017-08-25T00:09:50.676Z,8.67
2017-08-25T00:12:17.380Z,8.40
2017-08-25T00:14:44.167Z,9.63
2017-08-25T00:17:11.025Z,10.33
2017-08-25T00:19:37.747Z,9.87
2017-08-25T00:22:04.462Z,10.47
2017-08-25T00:24:31.305Z,10.20
2017-08-25T00:26:58.007Z,9.87
2017-08-25T00:29:24.716Z,10.27
2017-08-25T00:31:51.481Z,9.57
2017-08-25T00:34:18.197Z,10.13
2017-08-25T00:36:44.899Z,9.70
2017-08-25T00:39:11.651Z,9.83
2017-08-25T00:41:38.398Z,14.13
2017-08-25T00:44:05.141Z,9.70
2017-08-25T00:46:31.941Z,12.20
2017-08-25T00:48:58.667Z,10.90
2017-08-25T00:51:25.437Z,9.97
2017-08-25T00:53:52.158Z,9.50
2017-08-25T00:56:18.870Z,10.70
2017-08-25T00:58:45.656Z,11.17
2017-08-25T01:01:12.389Z,10.60
2017-08-25T01:03:39.109Z,11.57
2017-08-25T01:06:05.860Z,10.87
2017-08-25T01:08:32.659Z,9.50
2017-08-25T01:10:59.372Z,11.20
2017-08-25T01:13:26.152Z,11.47
2017-08-25T01:15:52.896Z,10.77
2017-08-25T01:18:19.607Z,10.47
2017-08-25T01:20:46.339Z,10.00
2017-08-25T01:23:13.133Z,10.07
2017-08-25T01:25:39.872Z,10.10
2017-08-25T01:28:06.620Z,9.27
2017-08-25T01:30:33.396Z,8.97
2017-08-25T01:33:00.132Z,8.97
2017-08-25T01:35:26.880Z,9.43
2017-08-25T01:37:53.657Z,9.23
2017-08-25T01:40:20.445Z,11.63
2017-08-25T01:42:47.178Z,11.40
2017-08-25T01:45:13.951Z,12.07
2017-08-25T01:47:40.709Z,10.30
2017-08-25T01:50:07.453Z,11.77
2017-08-25T01:52:34.232Z,12.00
2017-08-25T01:55:00.983Z,10.60
2017-08-25T01:57:27.735Z,11.00
2017-08-25T01:59:54.502Z,11.27
2017-08-25T02:02:21.250Z,10.63
2017-08-25T02:04:48.001Z,11.70
2017-08-25T02:07:14.815Z,10.93
2017-08-25T02:09:41.536Z,10.97
2017-08-25T02:12:08.267Z,10.93
2017-08-25T02:14:35.089Z,11.10
2017-08-25T02:17:01.856Z,11.03
2017-08-25T02:19:28.579Z,12.57
2017-08-25T02:21:55.303Z,10.50
2017-08-25T02:24:22.040Z,11.20
2017-08-25T02:26:48.756Z,10.90
2017-08-25T02:29:15.570Z,11.50
2017-08-25T02:31:42.311Z,11.80
2017-08-25T02:34:09.248Z,11.00
2017-08-25T02:36:35.994Z,11.17
2017-08-25T02:39:02.733Z,11.13
2017-08-25T02:41:29.442Z,9.60
2017-08-25T02:43:56.182Z,10.60
2017-08-25T02:46:22.920Z,11.03
2017-08-25T02:48:49.655Z,12.17
2017-08-25T02:51:16.402Z,10.30
2017-08-25T02:53:43.137Z,10.20
2017-08-25T02:56:09.848Z,11.27
2017-08-25T02:58:36.622Z,10.47
2017-08-25T03:01:03.326Z,9.93
2017-08-25T03:03:30.032Z,9.20
2017-08-25T03:05:56.894Z,10.40
2017-08-25T03:08:23.611Z,10.07
2017-08-25T03:10:50.378Z,10.10
2017-08-25T03:13:17.120Z,10.70
2017-08-25T03:15:43.830Z,10.93
2017-08-25T03:18:10.568Z,10.77
2017-08-25T03:20:37.300Z,11.00
2017-08-25T03:23:03.997Z,9.77
2017-08-25T03:25:30.731Z,12.50
2017-08-25T03:27:57.464Z,10.13
2017-08-25T03:30:24.280Z,10.27
2017-08-25T03:32:51.003Z,15.63
2017-08-25T03:35:17.735Z,12.00
2017-08-25T03:37:44.451Z,11.00
2017-08-25T03:40:11.161Z,10.80
2017-08-25T03:42:37.899Z,10.57
2017-08-25T03:45:04.607Z,9.63
2017-08-25T03:47:31.386Z,9.77
2017-08-25T03:49:58.155Z,9.47
2017-08-25T03:52:24.942Z,9.73
2017-08-25T03:54:51.655Z,10.10
2017-08-25T03:57:18.388Z,10.80
2017-08-25T03:59:45.124Z,10.93
2017-08-25T04:02:11.840Z,11.10
2017-08-25T04:04:38.597Z,10.83
2017-08-25T04:07:05.406Z,10.07
2017-08-25T04:09:32.126Z,10.53
2017-08-25T04:11:58.918Z,9.37
2017-08-25T04:14:25.629Z,8.60
2017-08-25T04:16:52.347Z,9.27
2017-08-25T04:19:19.079Z,10.00
2017-08-25T04:21:45.790Z,9.53
2017-08-25T04:24:12.528Z,9.53
2017-08-25T04:26:39.257Z,10.57
2017-08-25T04:29:05.972Z,9.73
2017-08-25T04:31:32.686Z,12.43
2017-08-25T04:33:59.519Z,9.90
2017-08-25T04:36:26.307Z,10.93
2017-08-25T04:38:53.025Z,9.47
2017-08-25T04:41:19.790Z,9.13
2017-08-25T04:43:46.512Z,11.10
2017-08-25T04:46:13.240Z,11.10
2017-08-25T04:48:40.002Z,9.43
2017-08-25T04:51:06.722Z,10.00
2017-08-25T04:53:33.436Z,10.10
2017-08-25T04:56:00.173Z,11.43
2017-08-25T04:58:26.878Z,10.87
2017-08-25T05:00:53.596Z,10.33
2017-08-25T05:03:20.320Z,10.37
2017-08-25T05:05:47.039Z,11.07
2017-08-25T05:08:13.750Z,11.00
2017-08-25T05:10:40.482Z,10.97
2017-08-25T05:13:07.224Z,17.17
2017-08-25T05:15:33.941Z,10.70
2017-08-25T05:18:00.751Z,12.20
2017-08-25T05:20:27.550Z,12.10
2017-08-25T05:22:54.262Z,12.30
2017-08-25T05:25:20.994Z,12.90
2017-08-25T05:27:47.716Z,14.50
2017-08-25T05:30:14.434Z,12.27
2017-08-25T05:32:41.182Z,14.60
2017-08-25T05:35:07.895Z,12.70
2017-08-25T05:37:34.596Z,13.20
2017-08-25T05:40:01.337Z,11.73
2017-08-25T05:42:28.046Z,13.17
2017-08-25T05:44:54.762Z,12.53
2017-08-25T05:47:21.506Z,14.30
2017-08-25T05:49:48.213Z,12.47
2017-08-25T05:52:14.929Z,13.93
2017-08-25T05:54:41.684Z,11.80
2017-08-25T05:57:08.398Z,10.50
2017-08-25T05:59:35.094Z,11.27
2017-08-25T06:02:01.830Z,15.00
2017-08-25T06:04:28.549Z,11.47
2017-08-25T06:06:55.249Z,9.40
2017-08-25T06:09:21.975Z,13.80
2017-08-25T06:11:48.759Z,9.73
2017-08-25T06:14:15.566Z,11.57
2017-08-25T06:16:42.348Z,13.47
2017-08-25T06:19:09.047Z,10.03
2017-08-25T06:21:35.750Z,10.77
2017-08-25T06:24:02.563Z,9.03
2017-08-25T06:26:29.263Z,9.47
2017-08-25T06:28:55.990Z,8.60
2017-08-25T06:31:22.739Z,11.17
2017-08-25T06:33:49.458Z,7.17
2017-08-25T06:36:16.149Z,7.20
2017-08-25T06:38:42.891Z,8.20
2017-08-25T06:41:09.683Z,7.93
2017-08-25T06:43:36.402Z,7.13
2017-08-25T06:46:03.127Z,7.00
2017-08-25T06:48:29.824Z,7.07
2017-08-25T06:50:56.526Z,6.33
2017-08-25T06:53:23.271Z,8.27
2017-08-25T06:55:49.975Z,6.23
2017-08-25T06:58:16.684Z,9.30
2017-08-25T07:00:43.413Z,5.77
2017-08-25T07:03:10.152Z,5.80
2017-08-25T07:05:36.847Z,6.90
2017-08-25T07:08:03.587Z,6.00
2017-08-25T07:10:30.367Z,6.20
2017-08-25T07:12:57.067Z,6.37
2017-08-25T07:15:23.860Z,5.50
2017-08-25T07:17:50.569Z,9.50
2017-08-25T07:20:17.270Z,6.03
2017-08-25T07:22:44.028Z,5.70
2017-08-25T07:25:10.756Z,6.30
2017-08-25T07:27:37.465Z,6.70
2017-08-25T07:30:04.209Z,7.17
2017-08-25T07:32:30.919Z,6.60
2017-08-25T07:34:57.618Z,6.87
2017-08-25T07:37:24.338Z,7.10
2017-08-25T07:39:51.023Z,7.17
2017-08-25T07:42:17.723Z,9.83
2017-08-25T07:44:44.457Z,6.87
2017-08-25T07:47:11.167Z,10.57
2017-08-25T07:49:37.871Z,6.20
2017-08-25T07:52:04.589Z,6.20
2017-08-25T07:54:31.283Z,8.63
2017-08-25T07:56:58.004Z,7.63
2017-08-25T07:59:24.734Z,6.07
2017-08-25T08:01:51.438Z,6.90
2017-08-25T08:04:18.134Z,6.07
2017-08-25T08:06:44.856Z,6.07
2017-08-25T08:09:11.577Z,8.47
2017-08-25T08:11:38.273Z,6.30
2017-08-25T08:14:05.000Z,6.20
2017-08-25T08:16:31.692Z,5.73
2017-08-25T08:18:58.398Z,6.73
2017-08-25T08:21:25.104Z,5.97
2017-08-25T08:23:51.797Z,6.87
2017-08-25T08:26:18.498Z,6.60
2017-08-25T08:28:45.220Z,6.10
2017-08-25T08:31:11.929Z,9.10
2017-08-25T08:33:38.626Z,6.10
2017-08-25T08:36:05.360Z,5.77
2017-08-25T08:38:32.070Z,6.20
2017-08-25T08:40:58.795Z,6.07
2017-08-25T08:43:25.520Z,6.30
2017-08-25T08:45:52.216Z,6.50
2017-08-25T08:48:18.919Z,5.70
2017-08-25T08:50:45.639Z,6.40
2017-08-25T08:53:12.331Z,6.90
2017-08-25T08:55:39.053Z,6.60
2017-08-25T08:58:05.767Z,6.13
2017-08-25T09:00:32.472Z,7.10
2017-08-25T09:02:59.167Z,6.53
2017-08-25T09:05:31.590Z,6.80
2017-08-25T09:07:58.298Z,8.63
2017-08-25T09:10:25.003Z,6.80
2017-08-25T09:12:51.715Z,7.10
2017-08-25T09:15:18.405Z,7.17
2017-08-25T09:17:45.104Z,7.93
2017-08-25T09:20:11.827Z,6.93
2017-08-25T09:22:38.532Z,7.53
2017-08-25T09:25:05.254Z,6.70
2017-08-25T09:27:31.972Z,7.63
2017-08-25T09:29:58.666Z,6.70
2017-08-25T09:32:25.364Z,7.57
2017-08-25T09:34:52.113Z,6.73
2017-08-25T09:37:18.807Z,7.00
2017-08-25T09:39:45.522Z,7.17
2017-08-25T09:42:12.251Z,7.67
2017-08-25T09:44:38.961Z,8.97
2017-08-25T09:47:05.663Z,7.47
2017-08-25T09:49:32.374Z,8.77
2017-08-25T09:51:59.068Z,10.20
2017-08-25T09:54:25.770Z,7.53
2017-08-25T09:56:52.527Z,7.70
2017-08-25T09:59:19.251Z,6.87
2017-08-25T10:01:45.949Z,10.00
2017-08-25T10:04:12.703Z,10.00
2017-08-25T10:06:39.398Z,7.70
2017-08-25T10:09:06.110Z,6.90
2017-08-25T10:11:32.836Z,7.60
2017-08-25T10:13:59.534Z,7.30
2017-08-25T10:16:26.259Z,7.10
2017-08-25T10:18:53.001Z,6.93
2017-08-25T10:21:19.707Z,8.17
2017-08-25T10:23:46.452Z,7.97
2017-08-25T10:26:13.165Z,7.87
2017-08-25T10:28:39.861Z,7.17
2017-08-25T10:31:06.580Z,7.03
2017-08-25T10:33:39.210Z,6.97
2017-08-25T10:36:11.859Z,7.20
2017-08-25T10:38:44.402Z,6.70
2017-08-25T10:41:17.007Z,10.13
2017-08-25T10:43:49.602Z,7.20
2017-08-25T10:46:16.299Z,8.50
2017-08-25T10:48:42.997Z,8.63
2017-08-25T10:51:09.723Z,7.50
2017-08-25T10:53:36.436Z,7.53
2017-08-25T10:56:03.154Z,7.53
2017-08-25T10:58:29.871Z,7.50
2017-08-25T11:00:56.571Z,7.87
2017-08-25T11:03:23.288Z,7.50
2017-08-25T11:05:50.023Z,7.83
2017-08-25T11:08:16.720Z,7.80
2017-08-25T11:10:43.423Z,8.17
2017-08-25T11:13:10.138Z,8.63
2017-08-25T11:15:36.888Z,8.03
2017-08-25T11:18:03.582Z,8.47
2017-08-25T11:20:30.302Z,7.90
2017-08-25T11:22:56.993Z,7.83
2017-08-25T11:25:23.704Z,7.80
2017-08-25T11:27:50.427Z,7.30
2017-08-25T11:30:17.128Z,7.33
2017-08-25T11:32:43.820Z,8.23
2017-08-25T11:35:10.546Z,7.53
2017-08-25T11:37:37.246Z,6.87
2017-08-25T11:40:03.957Z,12.83
2017-08-25T11:42:30.691Z,7.33
2017-08-25T11:44:57.390Z,7.27
2017-08-25T11:47:24.100Z,7.23
2017-08-25T11:49:50.829Z,7.73
2017-08-25T11:52:17.571Z,7.90
2017-08-25T11:54:44.283Z,7.20
2017-08-25T11:57:11.011Z,7.47
2017-08-25T11:59:37.705Z,8.07
2017-08-25T12:02:04.427Z,7.93
2017-08-25T12:04:31.168Z,7.33
2017-08-25T12:06:57.879Z,7.67
2017-08-25T12:09:24.609Z,7.30
2017-08-25T12:11:51.345Z,7.40
2017-08-25T12:14:18.055Z,7.33
2017-08-25T12:16:44.795Z,7.43
2017-08-25T12:19:11.541Z,7.37
2017-08-25T12:21:38.268Z,6.57
2017-08-25T12:24:04.985Z,6.90
2017-08-25T12:26:31.721Z,7.20
2017-08-25T12:28:58.454Z,7.37
2017-08-25T12:31:25.155Z,7.97
2017-08-25T12:33:51.874Z,8.00
2017-08-25T12:36:18.583Z,6.60
2017-08-25T12:38:45.314Z,7.97
2017-08-25T12:41:12.074Z,7.40
2017-08-25T12:43:38.797Z,7.97
2017-08-25T12:46:05.495Z,6.70
2017-08-25T12:48:32.245Z,9.70
2017-08-25T12:50:58.958Z,6.87
2017-08-25T12:53:25.670Z,7.27
2017-08-25T12:55:52.448Z,6.87
2017-08-25T12:58:19.161Z,7.80
2017-08-25T13:00:45.862Z,7.87
2017-08-25T13:03:12.628Z,8.03
2017-08-25T13:05:39.346Z,8.83
2017-08-25T13:08:06.055Z,7.70
2017-08-25T13:10:32.794Z,8.97
2017-08-25T13:12:59.493Z,7.97
2017-08-25T13:15:26.192Z,8.33
2017-08-25T13:17:52.911Z,6.67
2017-08-25T13:20:19.621Z,8.03
2017-08-25T13:22:46.331Z,7.10
2017-08-25T13:25:13.049Z,6.87
2017-08-25T13:27:39.753Z,6.90
2017-08-25T13:30:06.451Z,9.80
2017-08-25T13:32:33.165Z,6.10
2017-08-25T13:34:59.869Z,9.70
2017-08-25T13:37:26.563Z,8.73
2017-08-25T13:39:53.267Z,7.47
2017-08-25T13:42:20.004Z,7.50
2017-08-25T13:44:46.710Z,6.67
2017-08-25T13:47:13.429Z,6.17
2017-08-25T13:49:40.125Z,8.57
2017-08-25T13:52:06.819Z,7.10
2017-08-25T13:54:33.555Z,6.57
2017-08-25T13:57:00.250Z,6.37
2017-08-25T13:59:26.948Z,6.97
2017-08-25T14:01:53.725Z,6.57
2017-08-25T14:04:20.438Z,6.73
2017-08-25T14:06:47.130Z,7.07
2017-08-25T14:09:13.843Z,6.60
2017-08-25T14:11:40.886Z,7.23
2017-08-25T14:14:07.601Z,7.10
2017-08-25T14:16:34.318Z,6.87
2017-08-25T14:19:01.023Z,6.70
2017-08-25T14:21:27.734Z,7.00
2017-08-25T14:23:54.467Z,7.20
2017-08-25T14:26:21.163Z,7.73
2017-08-25T14:28:47.855Z,7.20
2017-08-25T14:31:14.591Z,7.00
2017-08-25T14:33:41.281Z,6.60
2017-08-25T14:36:07.977Z,7.57
2017-08-25T14:38:34.706Z,6.77
2017-08-25T14:41:01.397Z,7.30
2017-08-25T14:43:28.096Z,7.53
2017-08-25T14:45:54.811Z,8.17
2017-08-25T14:48:21.500Z,6.87
2017-08-25T14:50:48.190Z,7.10
2017-08-25T14:53:14.901Z,7.60
2017-08-25T14:55:41.589Z,9.63
2017-08-25T14:58:08.287Z,7.17
2017-08-25T15:00:35.004Z,7.10
2017-08-25T15:03:01.723Z,8.23
2017-08-25T15:05:28.425Z,7.33
2017-08-25T15:07:55.172Z,7.40
2017-08-25T15:10:21.861Z,7.90
2017-08-25T15:12:48.554Z,6.93
2017-08-25T15:15:15.287Z,8.27
2017-08-25T15:17:41.974Z,7.77
2017-08-25T15:20:08.667Z,7.80
2017-08-25T15:22:35.396Z,7.33
2017-08-25T15:25:02.102Z,8.40
2017-08-25T15:27:28.834Z,7.90
2017-08-25T15:29:55.584Z,8.77
2017-08-25T15:32:22.284Z,8.93
2017-08-25T15:34:48.995Z,8.33
2017-08-25T15:37:15.726Z,8.90
2017-08-25T15:39:42.529Z,8.80
2017-08-25T15:42:09.271Z,8.60
2017-08-25T15:44:36.046Z,8.47
2017-08-25T15:47:02.764Z,10.70
2017-08-25T15:49:29.468Z,9.10
2017-08-25T15:51:56.182Z,8.47
2017-08-25T15:54:22.885Z,11.83
2017-08-25T15:56:49.612Z,9.13
2017-08-25T15:59:16.326Z,8.13
2017-08-25T16:01:43.102Z,8.60
2017-08-25T16:04:09.811Z,8.27
2017-08-25T16:06:36.532Z,8.10
2017-08-25T16:09:03.269Z,9.47
2017-08-25T16:11:30.052Z,9.40
2017-08-25T16:13:56.865Z,8.50
2017-08-25T16:16:23.652Z,8.03
2017-08-25T16:18:50.357Z,8.27
2017-08-25T16:21:17.162Z,9.13
2017-08-25T16:23:43.864Z,8.83
2017-08-25T16:26:10.577Z,8.57
2017-08-25T16:28:37.314Z,8.73
2017-08-25T16:31:04.147Z,9.20
2017-08-25T16:33:30.856Z,8.87
2017-08-25T16:35:57.576Z,8.67
2017-08-25T16:38:24.287Z,8.80
2017-08-25T16:40:51.004Z,8.70
2017-08-25T16:43:17.717Z,8.23
2017-08-25T16:45:44.484Z,8.60
2017-08-25T16:48:11.193Z,8.67
2017-08-25T16:50:37.936Z,9.37
2017-08-25T16:53:04.645Z,10.67
2017-08-25T16:55:31.443Z,8.23
2017-08-25T16:57:58.200Z,9.03
2017-08-25T17:00:24.926Z,9.03
2017-08-25T17:02:51.635Z,10.40
2017-08-25T17:05:18.495Z,8.43
2017-08-25T17:07:45.311Z,13.50
2017-08-25T17:10:12.094Z,8.67
2017-08-25T17:12:38.813Z,9.80
2017-08-25T17:15:05.548Z,9.40
2017-08-25T17:17:32.267Z,13.43
2017-08-25T17:19:59.079Z,9.20
2017-08-25T17:22:25.796Z,9.23
2017-08-25T17:24:52.591Z,14.67
2017-08-25T17:27:19.399Z,21.53
2017-08-25T17:29:46.116Z,21.07
2017-08-25T17:32:12.847Z,16.53
2017-08-25T17:34:39.586Z,17.17
2017-08-25T17:37:07.347Z,17.40
2017-08-25T17:39:34.261Z,15.63
2017-08-25T17:42:01.078Z,12.43
2017-08-25T17:44:27.837Z,12.00
2017-08-25T17:46:54.645Z,11.83
2017-08-25T17:49:21.412Z,11.93
2017-08-25T17:51:48.139Z,10.17
2017-08-25T17:54:14.850Z,10.50
2017-08-25T17:56:41.585Z,10.40
2017-08-25T17:59:08.374Z,11.00
2017-08-25T18:01:35.160Z,11.00
2017-08-25T18:04:01.915Z,10.40
2017-08-25T18:06:28.701Z,10.90
2017-08-25T18:08:55.399Z,10.23
2017-08-25T18:11:22.122Z,10.67
2017-08-25T18:13:48.823Z,10.93
2017-08-25T18:16:15.527Z,9.27
2017-08-25T18:18:42.283Z,10.47
2017-08-25T18:21:09.015Z,10.07
2017-08-25T18:23:35.720Z,9.73
2017-08-25T18:26:02.447Z,11.03
2017-08-25T18:28:29.163Z,10.00
2017-08-25T18:30:57.659Z,11.30
2017-08-25T18:33:24.530Z,12.23
2017-08-25T18:35:51.243Z,11.73
2017-08-25T18:38:17.971Z,11.57
2017-08-25T18:40:44.710Z,11.00
2017-08-25T18:43:11.448Z,11.13
2017-08-25T18:45:38.164Z,11.60
2017-08-25T18:48:04.907Z,11.20
2017-08-25T18:50:31.623Z,11.90
2017-08-25T18:52:58.337Z,12.10
2017-08-25T18:55:25.088Z,11.00
2017-08-25T18:57:51.832Z,11.40
2017-08-25T19:00:18.550Z,10.30
2017-08-25T19:02:59.406Z,11.23
2017-08-25T19:05:34.068Z,11.23
2017-08-25T19:08:20.538Z,13.17
2017-08-25T19:10:47.345Z,11.40
2017-08-25T19:13:17.958Z,10.37
2017-08-25T19:18:47.764Z,11.00
2017-08-25T19:21:14.821Z,11.00
2017-08-25T19:23:41.564Z,11.37
2017-08-25T19:26:08.279Z,11.17
2017-08-25T19:28:34.998Z,11.23
2017-08-25T19:31:01.833Z,11.20
2017-08-25T19:33:28.691Z,12.60
2017-08-25T19:35:55.546Z,11.97
2017-08-25T19:38:23.177Z,11.60
2017-08-25T19:40:49.912Z,11.90
2017-08-25T19:43:16.651Z,11.17
2017-08-25T19:45:43.415Z,12.73
2017-08-25T19:48:10.161Z,13.30
2017-08-25T19:50:36.905Z,12.10
2017-08-25T19:53:03.654Z,11.80
2017-08-25T19:55:30.376Z,12.10
2017-08-25T19:57:57.097Z,11.33
2017-08-25T20:00:23.927Z,12.20
2017-08-25T20:02:50.851Z,12.37
2017-08-25T20:05:17.556Z,13.40
2017-08-25T20:07:44.401Z,12.03
2017-08-25T20:10:11.139Z,13.10
2017-08-25T20:12:37.843Z,11.97
2017-08-25T20:15:04.660Z,12.27
2017-08-25T20:17:31.464Z,12.37
2017-08-25T20:19:58.194Z,11.53
2017-08-25T20:22:24.932Z,10.80
2017-08-25T20:24:51.643Z,11.27
2017-08-25T20:27:18.374Z,11.67
2017-08-25T20:29:45.118Z,11.67
2017-08-25T20:32:11.904Z,11.47
2017-08-25T20:34:38.701Z,13.27
2017-08-25T20:37:05.447Z,12.57
2017-08-25T20:39:32.155Z,13.87
2017-08-25T20:41:58.865Z,13.47
2017-08-25T20:44:25.623Z,12.10
2017-08-25T20:46:52.335Z,11.73
2017-08-25T20:49:19.042Z,12.43
2017-08-25T20:51:45.900Z,12.70
2017-08-25T20:54:12.631Z,11.17
2017-08-25T20:56:39.338Z,12.53
2017-08-25T20:59:06.078Z,12.50
2017-08-25T21:01:32.814Z,12.80
2017-08-25T21:04:00.011Z,11.90
2017-08-25T21:06:26.867Z,11.43
2017-08-25T21:08:53.804Z,12.53
2017-08-25T21:11:20.511Z,12.93
2017-08-25T21:13:47.250Z,13.50
2017-08-25T21:16:14.384Z,13.10
2017-08-25T21:18:41.122Z,12.83
2017-08-25T21:21:08.585Z,13.90
2017-08-25T21:23:35.323Z,13.57
2017-08-25T21:26:02.046Z,12.23
2017-08-25T21:28:28.804Z,13.45
2017-08-25T21:30:55.565Z,13.93
2017-08-25T21:33:22.270Z,13.70
2017-08-25T21:35:49.010Z,14.87
2017-08-25T21:38:15.799Z,13.00
2017-08-25T21:40:42.596Z,12.70
2017-08-25T21:43:09.455Z,15.30
2017-08-25T21:45:36.182Z,13.10
2017-08-25T21:48:02.919Z,13.33
2017-08-25T21:50:29.783Z,13.70
2017-08-25T21:52:56.518Z,12.77
2017-08-25T21:55:23.253Z,15.70
2017-08-25T21:57:50.002Z,12.47
2017-08-25T22:00:16.741Z,13.60
2017-08-25T22:02:43.455Z,14.13
2017-08-25T22:05:10.223Z,14.77
2017-08-25T22:07:37.011Z,13.77
2017-08-25T22:10:03.731Z,13.47
2017-08-25T22:12:30.474Z,13.90
2017-08-25T22:14:57.190Z,14.50
2017-08-25T22:17:23.909Z,13.30
2017-08-25T22:19:50.639Z,13.43
2017-08-25T22:22:17.359Z,13.43
2017-08-25T22:24:44.093Z,14.00
2017-08-25T22:27:10.863Z,13.43
2017-08-25T22:29:37.571Z,13.97
2017-08-25T22:32:04.282Z,13.93
2017-08-25T22:34:31.022Z,14.50
2017-08-25T22:36:57.829Z,13.90
2017-08-25T22:39:24.559Z,14.07
2017-08-25T22:41:51.302Z,15.13
2017-08-25T22:44:18.016Z,13.63
2017-08-25T22:46:44.788Z,14.13
2017-08-25T22:49:11.542Z,14.20
2017-08-25T22:51:38.254Z,14.20
2017-08-25T22:54:04.963Z,14.80
2017-08-25T22:56:31.711Z,14.33
2017-08-25T22:58:58.447Z,14.10
2017-08-25T23:01:25.181Z,14.43
2017-08-25T23:03:51.932Z,13.13
2017-08-25T23:06:18.651Z,14.20
2017-08-25T23:08:45.358Z,14.40
2017-08-25T23:11:12.113Z,14.40
2017-08-25T23:13:38.840Z,14.50
2017-08-25T23:16:05.551Z,14.90
2017-08-25T23:18:32.303Z,14.10
2017-08-25T23:20:59.012Z,16.93
2017-08-25T23:23:25.736Z,14.80
2017-08-25T23:25:52.463Z,13.77
2017-08-25T23:28:19.166Z,14.83
2017-08-25T23:30:45.952Z,14.60
2017-08-25T23:33:12.741Z,15.40
2017-08-25T23:35:39.451Z,14.93
2017-08-25T23:38:06.168Z,15.23
2017-08-25T23:40:32.915Z,14.00
2017-08-25T23:42:59.622Z,13.13
2017-08-25T23:45:26.331Z,15.30
2017-08-25T23:47:53.083Z,13.23
2017-08-25T23:50:19.880Z,14.37
2017-08-25T23:52:46.582Z,14.77
2017-08-25T23:55:13.368Z,15.37
2017-08-25T23:57:40.112Z,14.97
